Startpagina
METAR-TAF:

METAR-TAF

Vliegvelden :

Pullman-Moscow Regional Airport

Pullman / Moscow, Washington, Verenigde Staten

breedte: 46-44-38N, lengte: 117-06-35W, hoogte: 779 m

Actueel weer

Dit bericht is 29 minuten geleden gemaakt, om 01:53 UTC
Wind 5 kt uit het westnoordwesten
Temperatuur 24°C
Vochtigheid 22%
Druk 1017 hPa
Zicht: 16.1 km
Onbewolkt

METAR: KPUW 210153Z AUTO 29005KT 10SM CLR 24/01 A3002 RMK AO2 SLP154 T02390011

Tijdstip: 19:22 (02:22 UTC)

Verwachting

Dit bericht is 3 uur en het 2 minuten geleden gemaakt, om 23:20 UTC
Verwachting geldig van 21 om 00 UTC tot 21 om 24 UTC
Wind 7 kt uit het westen
Zicht: 10 km
Verspreide wolken op 10000 ft
Van 21 om 0300 UTC
Wind 3 kt uit variabele richting
Zicht: 10 km
Weinig wolken op 2000 ft
Weinig wolken op 10000 ft
Van 21 om 1800 UTC
Wind 7 kt uit het westen
Zicht: 10 km
Weinig wolken op 10000 ft

TAF: KPUW 202320Z 2100/2124 28007KT P6SM SCT100 FM210300 VRB03KT P6SM FEW020 FEW100 FM211800 27007KT P6SM FEW100

Waarnemingen en weersverwachtingen van meer dan 4000 vliegvelden (METAR en TAF).

De beschikbare stations zijn de gele en rode punten op de kaart.

Ga met uw muis naar het station om de naam te zien.

Klik dan om waarnemingen en weersverwachtingen te zien.

kaart wijzigen: klik op de groene knoppen met een zwart kruis om in te zoomen, op de groene knop met een streepje om uit te zoomen of op de groene pijlen voor aangrenzende kaarten.


METAR-TAF: